sensor_id;sensor_type;location;lat;lon;timestamp;pressure;altitude;pressure_sealevel;temperature;humidity
38718;BME280;24468;52.128;9.278;2022-08-04T00:01:38;100530.50;;;22.44;100.00
38718;BME280;24468;52.128;9.278;2022-08-04T00:04:15;100529.28;;;22.17;100.00
38718;BME280;24468;52.128;9.278;2022-08-04T00:07:15;100522.03;;;22.06;100.00
38718;BME280;24468;52.128;9.278;2022-08-04T00:09:55;100520.31;;;22.15;100.00
38718;BME280;24468;52.128;9.278;2022-08-04T00:12:24;100514.38;;;22.10;100.00
38718;BME280;24468;52.128;9.278;2022-08-04T00:14:53;100526.97;;;22.12;100.00
38718;BME280;24468;52.128;9.278;2022-08-04T00:17:33;100526.81;;;22.04;100.00
38718;BME280;24468;52.128;9.278;2022-08-04T00:20:03;100528.81;;;22.02;100.00
38718;BME280;24468;52.128;9.278;2022-08-04T00:22:30;100532.59;;;21.91;100.00
38718;BME280;24468;52.128;9.278;2022-08-04T00:25:01;100523.16;;;21.84;100.00
38718;BME280;24468;52.128;9.278;2022-08-04T00:27:31;100523.47;;;22.10;100.00
38718;BME280;24468;52.128;9.278;2022-08-04T00:29:58;100520.47;;;22.13;100.00
38718;BME280;24468;52.128;9.278;2022-08-04T00:32:25;100517.44;;;22.26;100.00
38718;BME280;24468;52.128;9.278;2022-08-04T00:34:53;100516.41;;;22.08;100.00
38718;BME280;24468;52.128;9.278;2022-08-04T00:37:24;100526.97;;;22.03;100.00
38718;BME280;24468;52.128;9.278;2022-08-04T00:39:54;100526.19;;;21.91;100.00
38718;BME280;24468;52.128;9.278;2022-08-04T00:42:46;100526.03;;;21.73;100.00
38718;BME280;24468;52.128;9.278;2022-08-04T00:50:56;100521.44;;;21.83;100.00
38718;BME280;24468;52.128;9.278;2022-08-04T00:54:13;100537.22;;;21.50;100.00
38718;BME280;24468;52.128;9.278;2022-08-04T01:03:08;100530.16;;;21.58;100.00
38718;BME280;24468;52.128;9.278;2022-08-04T01:06:00;100529.59;;;21.64;100.00
38718;BME280;24468;52.128;9.278;2022-08-04T01:15:09;100517.69;;;21.44;100.00
38718;BME280;24468;52.128;9.278;2022-08-04T01:17:53;100525.47;;;21.39;100.00
38718;BME280;24468;52.128;9.278;2022-08-04T01:20:24;100525.97;;;21.23;100.00
38718;BME280;24468;52.128;9.278;2022-08-04T01:23:26;100525.72;;;21.05;100.00
38718;BME280;24468;52.128;9.278;2022-08-04T01:26:42;100525.16;;;21.11;100.00
38718;BME280;24468;52.128;9.278;2022-08-04T01:29:12;100519.03;;;20.98;100.00
38718;BME280;24468;52.128;9.278;2022-08-04T01:34:29;100516.44;;;20.96;100.00
38718;BME280;24468;52.128;9.278;2022-08-04T01:39:37;100524.66;;;20.96;100.00
38718;BME280;24468;52.128;9.278;2022-08-04T01:42:07;100524.50;;;20.98;100.00
38718;BME280;24468;52.128;9.278;2022-08-04T01:44:36;100524.97;;;21.03;100.00
38718;BME280;24468;52.128;9.278;2022-08-04T01:47:02;100522.38;;;21.01;100.00
38718;BME280;24468;52.128;9.278;2022-08-04T01:49:31;100517.09;;;20.88;100.00
38718;BME280;24468;52.128;9.278;2022-08-04T01:51:57;100521.84;;;20.86;100.00
38718;BME280;24468;52.128;9.278;2022-08-04T01:54:24;100512.09;;;20.94;100.00
38718;BME280;24468;52.128;9.278;2022-08-04T01:56:51;100514.91;;;20.82;100.00
38718;BME280;24468;52.128;9.278;2022-08-04T01:59:19;100515.47;;;20.76;100.00
38718;BME280;24468;52.128;9.278;2022-08-04T02:01:46;100508.41;;;20.83;100.00
38718;BME280;24468;52.128;9.278;2022-08-04T02:04:19;100500.41;;;20.71;100.00
38718;BME280;24468;52.128;9.278;2022-08-04T02:07:18;100503.19;;;20.80;100.00
38718;BME280;24468;52.128;9.278;2022-08-04T02:10:16;100496.00;;;20.79;100.00
38718;BME280;24468;52.128;9.278;2022-08-04T02:16:04;100501.88;;;20.54;100.00
38718;BME280;24468;52.128;9.278;2022-08-04T02:18:56;100496.63;;;20.51;100.00
38718;BME280;24468;52.128;9.278;2022-08-04T02:21:25;100492.44;;;20.68;100.00
38718;BME280;24468;52.128;9.278;2022-08-04T02:24:02;100484.38;;;20.66;100.00
38718;BME280;24468;52.128;9.278;2022-08-04T02:26:32;100496.59;;;20.83;100.00
38718;BME280;24468;52.128;9.278;2022-08-04T02:32:08;100489.00;;;20.33;100.00
38718;BME280;24468;52.128;9.278;2022-08-04T02:35:02;100483.25;;;20.36;100.00
38718;BME280;24468;52.128;9.278;2022-08-04T02:37:31;100491.19;;;20.39;100.00
38718;BME280;24468;52.128;9.278;2022-08-04T02:40:00;100488.06;;;20.44;100.00
38718;BME280;24468;52.128;9.278;2022-08-04T02:42:28;100486.19;;;20.44;100.00
38718;BME280;24468;52.128;9.278;2022-08-04T02:44:57;100484.50;;;20.11;100.00
38718;BME280;24468;52.128;9.278;2022-08-04T02:47:26;100486.28;;;20.01;100.00
38718;BME280;24468;52.128;9.278;2022-08-04T02:49:56;100481.06;;;19.98;100.00
38718;BME280;24468;52.128;9.278;2022-08-04T02:52:23;100481.91;;;19.98;100.00
38718;BME280;24468;52.128;9.278;2022-08-04T02:54:53;100481.38;;;20.05;100.00
38718;BME280;24468;52.128;9.278;2022-08-04T02:57:23;100483.69;;;20.20;100.00
38718;BME280;24468;52.128;9.278;2022-08-04T03:00:10;100483.72;;;19.88;100.00
38718;BME280;24468;52.128;9.278;2022-08-04T03:03:14;100480.09;;;20.20;100.00
38718;BME280;24468;52.128;9.278;2022-08-04T03:06:27;100481.44;;;20.26;100.00
38718;BME280;24468;52.128;9.278;2022-08-04T03:09:16;100477.94;;;20.24;100.00
38718;BME280;24468;52.128;9.278;2022-08-04T03:20:58;100467.84;;;20.03;100.00
38718;BME280;24468;52.128;9.278;2022-08-04T03:24:23;100466.75;;;19.94;100.00
38718;BME280;24468;52.128;9.278;2022-08-04T03:45:27;100456.50;;;20.08;100.00
38718;BME280;24468;52.128;9.278;2022-08-04T03:48:27;100460.06;;;20.19;100.00
38718;BME280;24468;52.128;9.278;2022-08-04T04:03:09;100458.25;;;20.51;100.00
38718;BME280;24468;52.128;9.278;2022-08-04T04:15:19;100461.00;;;20.51;100.00
38718;BME280;24468;52.128;9.278;2022-08-04T04:18:29;100461.53;;;20.86;100.00
38718;BME280;24468;52.128;9.278;2022-08-04T04:24:32;100450.13;;;21.22;100.00
38718;BME280;24468;52.128;9.278;2022-08-04T04:34:54;100446.63;;;21.41;100.00
38718;BME280;24468;52.128;9.278;2022-08-04T04:44:06;100448.88;;;21.36;100.00
38718;BME280;24468;52.128;9.278;2022-08-04T04:49:33;100446.25;;;21.94;100.00
38718;BME280;24468;52.128;9.278;2022-08-04T04:52:37;100441.22;;;21.89;100.00
38718;BME280;24468;52.128;9.278;2022-08-04T04:55:40;100435.56;;;21.91;100.00
38718;BME280;24468;52.128;9.278;2022-08-04T04:58:13;100440.47;;;22.07;100.00
38718;BME280;24468;52.128;9.278;2022-08-04T05:01:05;100439.31;;;22.09;100.00
38718;BME280;24468;52.128;9.278;2022-08-04T05:09:50;100442.09;;;22.38;100.00
38718;BME280;24468;52.128;9.278;2022-08-04T05:14:58;100439.28;;;22.68;100.00
38718;BME280;24468;52.128;9.278;2022-08-04T05:17:39;100442.25;;;22.84;100.00
38718;BME280;24468;52.128;9.278;2022-08-04T05:20:34;100441.22;;;22.95;100.00
38718;BME280;24468;52.128;9.278;2022-08-04T05:28:23;100426.75;;;23.30;100.00
38718;BME280;24468;52.128;9.278;2022-08-04T05:31:05;100430.72;;;23.45;100.00
38718;BME280;24468;52.128;9.278;2022-08-04T05:33:47;100428.88;;;23.08;100.00
38718;BME280;24468;52.128;9.278;2022-08-04T05:36:17;100416.91;;;23.27;100.00
38718;BME280;24468;52.128;9.278;2022-08-04T05:38:52;100423.47;;;23.17;100.00
38718;BME280;24468;52.128;9.278;2022-08-04T05:41:20;100419.94;;;23.34;100.00
38718;BME280;24468;52.128;9.278;2022-08-04T05:43:48;100423.25;;;23.56;100.00
38718;BME280;24468;52.128;9.278;2022-08-04T05:46:15;100419.22;;;23.78;100.00
38718;BME280;24468;52.128;9.278;2022-08-04T05:48:42;100422.75;;;23.70;100.00
38718;BME280;24468;52.128;9.278;2022-08-04T05:51:09;100420.78;;;23.80;100.00
38718;BME280;24468;52.128;9.278;2022-08-04T05:53:36;100415.00;;;23.56;100.00
38718;BME280;24468;52.128;9.278;2022-08-04T05:56:03;100415.31;;;23.52;100.00
38718;BME280;24468;52.128;9.278;2022-08-04T05:58:30;100416.31;;;23.79;100.00
38718;BME280;24468;52.128;9.278;2022-08-04T06:00:58;100415.84;;;24.19;100.00
38718;BME280;24468;52.128;9.278;2022-08-04T06:03:28;100408.72;;;24.35;100.00
38718;BME280;24468;52.128;9.278;2022-08-04T06:05:56;100404.72;;;24.47;100.00
38718;BME280;24468;52.128;9.278;2022-08-04T06:08:22;100405.81;;;24.62;100.00
38718;BME280;24468;52.128;9.278;2022-08-04T06:10:50;100394.47;;;24.92;100.00
38718;BME280;24468;52.128;9.278;2022-08-04T06:13:22;100393.50;;;25.09;100.00
38718;BME280;24468;52.128;9.278;2022-08-04T06:15:52;100391.69;;;24.92;100.00
38718;BME280;24468;52.128;9.278;2022-08-04T06:18:21;100395.06;;;24.77;100.00
38718;BME280;24468;52.128;9.278;2022-08-04T06:20:48;100396.13;;;24.84;100.00
38718;BME280;24468;52.128;9.278;2022-08-04T06:23:18;100394.97;;;24.95;100.00
38718;BME280;24468;52.128;9.278;2022-08-04T06:25:51;100392.47;;;25.10;100.00
38718;BME280;24468;52.128;9.278;2022-08-04T06:28:19;100389.88;;;25.08;100.00
38718;BME280;24468;52.128;9.278;2022-08-04T06:30:46;100389.44;;;25.21;100.00
38718;BME280;24468;52.128;9.278;2022-08-04T06:33:15;100384.44;;;25.25;100.00
38718;BME280;24468;52.128;9.278;2022-08-04T06:36:03;100387.78;;;25.45;100.00
38718;BME280;24468;52.128;9.278;2022-08-04T06:38:32;100387.53;;;25.81;100.00
38718;BME280;24468;52.128;9.278;2022-08-04T06:41:00;100388.94;;;25.85;100.00
38718;BME280;24468;52.128;9.278;2022-08-04T06:43:28;100388.31;;;25.40;100.00
38718;BME280;24468;52.128;9.278;2022-08-04T06:45:56;100380.72;;;25.59;100.00
38718;BME280;24468;52.128;9.278;2022-08-04T06:48:23;100380.38;;;25.37;100.00
38718;BME280;24468;52.128;9.278;2022-08-04T06:50:50;100382.03;;;25.97;100.00
38718;BME280;24468;52.128;9.278;2022-08-04T06:53:17;100380.66;;;25.85;100.00
38718;BME280;24468;52.128;9.278;2022-08-04T06:55:46;100380.50;;;25.86;100.00
38718;BME280;24468;52.128;9.278;2022-08-04T06:58:14;100372.72;;;25.90;100.00
38718;BME280;24468;52.128;9.278;2022-08-04T07:00:42;100376.28;;;25.82;100.00
38718;BME280;24468;52.128;9.278;2022-08-04T07:03:09;100376.69;;;26.20;100.00
38718;BME280;24468;52.128;9.278;2022-08-04T07:05:36;100371.31;;;26.27;99.09
38718;BME280;24468;52.128;9.278;2022-08-04T07:08:03;100369.22;;;26.61;96.34
38718;BME280;24468;52.128;9.278;2022-08-04T07:10:29;100365.72;;;26.76;95.34
38718;BME280;24468;52.128;9.278;2022-08-04T07:12:57;100358.59;;;26.81;91.79
38718;BME280;24468;52.128;9.278;2022-08-04T07:15:24;100358.75;;;26.96;92.49
38718;BME280;24468;52.128;9.278;2022-08-04T07:17:51;100358.34;;;27.08;91.92
38718;BME280;24468;52.128;9.278;2022-08-04T07:20:17;100365.44;;;27.18;88.99
38718;BME280;24468;52.128;9.278;2022-08-04T07:22:46;100362.13;;;27.06;89.83
38718;BME280;24468;52.128;9.278;2022-08-04T07:25:14;100358.59;;;26.90;89.81
38718;BME280;24468;52.128;9.278;2022-08-04T07:27:41;100357.28;;;27.09;87.58
38718;BME280;24468;52.128;9.278;2022-08-04T07:30:08;100354.78;;;27.61;85.07
38718;BME280;24468;52.128;9.278;2022-08-04T07:32:36;100345.06;;;27.65;85.07
38718;BME280;24468;52.128;9.278;2022-08-04T07:35:04;100359.72;;;27.74;83.00
38718;BME280;24468;52.128;9.278;2022-08-04T07:37:30;100357.13;;;28.19;80.44
38718;BME280;24468;52.128;9.278;2022-08-04T07:39:56;100348.22;;;28.46;78.03
38718;BME280;24468;52.128;9.278;2022-08-04T07:42:21;100343.00;;;28.66;75.15
38718;BME280;24468;52.128;9.278;2022-08-04T07:44:47;100351.50;;;28.50;76.25
38718;BME280;24468;52.128;9.278;2022-08-04T07:47:13;100345.56;;;28.83;74.09
38718;BME280;24468;52.128;9.278;2022-08-04T07:49:40;100345.44;;;29.20;71.94
38718;BME280;24468;52.128;9.278;2022-08-04T07:52:06;100335.00;;;29.22;69.99
38718;BME280;24468;52.128;9.278;2022-08-04T07:54:33;100340.00;;;29.27;71.18
38718;BME280;24468;52.128;9.278;2022-08-04T07:56:59;100342.09;;;29.61;67.35
38718;BME280;24468;52.128;9.278;2022-08-04T07:59:25;100338.44;;;29.76;66.33
38718;BME280;24468;52.128;9.278;2022-08-04T08:01:52;100337.03;;;29.65;65.72
38718;BME280;24468;52.128;9.278;2022-08-04T08:04:19;100334.63;;;29.83;65.77
38718;BME280;24468;52.128;9.278;2022-08-04T08:06:45;100333.69;;;29.55;66.57
38718;BME280;24468;52.128;9.278;2022-08-04T08:09:15;100328.31;;;29.53;66.90
38718;BME280;24468;52.128;9.278;2022-08-04T08:11:46;100327.16;;;29.84;63.66
38718;BME280;24468;52.128;9.278;2022-08-04T08:14:13;100328.88;;;29.63;65.52
38718;BME280;24468;52.128;9.278;2022-08-04T08:16:39;100329.88;;;29.77;64.87
38718;BME280;24468;52.128;9.278;2022-08-04T08:19:05;100326.25;;;29.98;63.89
38718;BME280;24468;52.128;9.278;2022-08-04T08:21:32;100325.84;;;30.01;63.44
38718;BME280;24468;52.128;9.278;2022-08-04T08:23:57;100315.16;;;30.26;62.75
38718;BME280;24468;52.128;9.278;2022-08-04T08:26:24;100312.84;;;30.65;60.43
38718;BME280;24468;52.128;9.278;2022-08-04T08:28:50;100307.13;;;30.79;59.92
38718;BME280;24468;52.128;9.278;2022-08-04T08:31:15;100313.66;;;30.87;59.53
38718;BME280;24468;52.128;9.278;2022-08-04T08:33:41;100317.38;;;31.07;57.88
38718;BME280;24468;52.128;9.278;2022-08-04T08:36:25;100315.19;;;30.61;57.50
38718;BME280;24468;52.128;9.278;2022-08-04T08:39:13;100315.69;;;31.13;52.79
38718;BME280;24468;52.128;9.278;2022-08-04T08:42:05;100311.53;;;30.26;57.29
38718;BME280;24468;52.128;9.278;2022-08-04T08:54:46;100307.94;;;31.63;52.16
38718;BME280;24468;52.128;9.278;2022-08-04T08:58:30;100305.97;;;31.43;50.67
38718;BME280;24468;52.128;9.278;2022-08-04T09:04:08;100311.03;;;32.01;47.83
38718;BME280;24468;52.128;9.278;2022-08-04T09:10:05;100296.84;;;32.03;47.13
38718;BME280;24468;52.128;9.278;2022-08-04T09:15:48;100289.72;;;32.60;44.41
38718;BME280;24468;52.128;9.278;2022-08-04T09:18:44;100295.91;;;32.69;43.00
38718;BME280;24468;52.128;9.278;2022-08-04T09:21:41;100291.16;;;30.88;48.07
38718;BME280;24468;52.128;9.278;2022-08-04T09:24:17;100284.31;;;31.59;46.77
38718;BME280;24468;52.128;9.278;2022-08-04T09:27:19;100282.22;;;32.54;42.97
38718;BME280;24468;52.128;9.278;2022-08-04T09:30:00;100282.34;;;32.79;41.58
38718;BME280;24468;52.128;9.278;2022-08-04T09:32:56;100276.53;;;32.94;41.54
38718;BME280;24468;52.128;9.278;2022-08-04T09:38:34;100290.81;;;32.46;43.76
38718;BME280;24468;52.128;9.278;2022-08-04T09:44:37;100282.59;;;31.44;44.00
38718;BME280;24468;52.128;9.278;2022-08-04T09:47:19;100281.34;;;32.67;41.82
38718;BME280;24468;52.128;9.278;2022-08-04T09:56:13;100268.34;;;33.37;39.82
38718;BME280;24468;52.128;9.278;2022-08-04T09:59:05;100266.06;;;33.28;39.00
38718;BME280;24468;52.128;9.278;2022-08-04T10:01:36;100281.41;;;32.20;42.13
38718;BME280;24468;52.128;9.278;2022-08-04T10:04:08;100274.78;;;32.99;40.99
38718;BME280;24468;52.128;9.278;2022-08-04T10:10:00;100259.09;;;33.43;39.49
38718;BME280;24468;52.128;9.278;2022-08-04T10:27:22;100254.47;;;34.38;37.16
38718;BME280;24468;52.128;9.278;2022-08-04T10:29:51;100255.38;;;34.50;37.15
38718;BME280;24468;52.128;9.278;2022-08-04T10:32:27;100256.44;;;34.74;36.01
38718;BME280;24468;52.128;9.278;2022-08-04T10:35:16;100256.75;;;34.84;36.00
38718;BME280;24468;52.128;9.278;2022-08-04T10:40:45;100247.75;;;35.61;35.98
38718;BME280;24468;52.128;9.278;2022-08-04T10:45:59;100238.31;;;36.09;35.53
38718;BME280;24468;52.128;9.278;2022-08-04T10:48:59;100248.91;;;35.95;34.34
38718;BME280;24468;52.128;9.278;2022-08-04T10:51:47;100245.22;;;35.71;35.01
38718;BME280;24468;52.128;9.278;2022-08-04T10:57:36;100240.81;;;35.33;35.27
38718;BME280;24468;52.128;9.278;2022-08-04T11:00:16;100237.50;;;35.25;36.03
38718;BME280;24468;52.128;9.278;2022-08-04T11:02:57;100244.25;;;35.35;35.54
38718;BME280;24468;52.128;9.278;2022-08-04T11:05:38;100237.19;;;35.45;35.30
38718;BME280;24468;52.128;9.278;2022-08-04T11:08:35;100235.75;;;35.24;35.88
38718;BME280;24468;52.128;9.278;2022-08-04T11:11:55;100229.63;;;35.15;36.12
38718;BME280;24468;52.128;9.278;2022-08-04T11:14:30;100232.75;;;35.25;36.15
38718;BME280;24468;52.128;9.278;2022-08-04T11:17:05;100234.25;;;35.39;36.79
38718;BME280;24468;52.128;9.278;2022-08-04T11:19:48;100231.81;;;35.13;37.47
38718;BME280;24468;52.128;9.278;2022-08-04T11:27:42;100227.41;;;35.66;35.57
38718;BME280;24468;52.128;9.278;2022-08-04T11:30:12;100223.31;;;36.27;35.46
38718;BME280;24468;52.128;9.278;2022-08-04T11:39:17;100227.59;;;36.06;35.12
38718;BME280;24468;52.128;9.278;2022-08-04T11:41:57;100219.50;;;36.68;34.30
38718;BME280;24468;52.128;9.278;2022-08-04T11:44:40;100216.84;;;37.02;33.65
38718;BME280;24468;52.128;9.278;2022-08-04T11:47:19;100227.19;;;36.49;34.20
38718;BME280;24468;52.128;9.278;2022-08-04T11:49:53;100210.88;;;36.87;33.40
38718;BME280;24468;52.128;9.278;2022-08-04T11:52:21;100217.75;;;36.79;34.23
38718;BME280;24468;52.128;9.278;2022-08-04T11:54:49;100218.88;;;36.66;33.95
38718;BME280;24468;52.128;9.278;2022-08-04T11:57:15;100218.59;;;36.80;33.97
38718;BME280;24468;52.128;9.278;2022-08-04T11:59:41;100218.94;;;36.95;34.75
38718;BME280;24468;52.128;9.278;2022-08-04T12:08:32;100215.28;;;36.83;33.25
38718;BME280;24468;52.128;9.278;2022-08-04T12:11:37;100229.03;;;36.44;33.69
38718;BME280;24468;52.128;9.278;2022-08-04T12:17:33;100216.31;;;36.53;32.68
38718;BME280;24468;52.128;9.278;2022-08-04T12:20:03;100209.00;;;36.05;32.39
38718;BME280;24468;52.128;9.278;2022-08-04T12:22:40;100212.03;;;35.80;32.04
38718;BME280;24468;52.128;9.278;2022-08-04T12:25:11;100212.59;;;36.12;31.92
38718;BME280;24468;52.128;9.278;2022-08-04T12:28:21;100221.81;;;36.36;31.79
38718;BME280;24468;52.128;9.278;2022-08-04T12:30:54;100213.56;;;36.18;30.90
38718;BME280;24468;52.128;9.278;2022-08-04T12:33:39;100220.50;;;36.27;31.25
38718;BME280;24468;52.128;9.278;2022-08-04T12:36:26;100217.94;;;36.37;31.28
38718;BME280;24468;52.128;9.278;2022-08-04T12:39:18;100206.84;;;36.19;31.94
38718;BME280;24468;52.128;9.278;2022-08-04T12:44:22;100213.88;;;35.98;31.89
38718;BME280;24468;52.128;9.278;2022-08-04T12:46:50;100205.97;;;36.18;31.66
38718;BME280;24468;52.128;9.278;2022-08-04T12:49:16;100210.59;;;36.48;31.62
38718;BME280;24468;52.128;9.278;2022-08-04T12:51:43;100210.22;;;36.68;31.64
38718;BME280;24468;52.128;9.278;2022-08-04T12:54:10;100210.94;;;36.63;31.34
38718;BME280;24468;52.128;9.278;2022-08-04T12:56:37;100207.53;;;36.61;31.36
38718;BME280;24468;52.128;9.278;2022-08-04T12:59:09;100200.94;;;36.56;31.29
38718;BME280;24468;52.128;9.278;2022-08-04T13:01:35;100197.31;;;36.08;32.19
38718;BME280;24468;52.128;9.278;2022-08-04T13:04:11;100190.56;;;36.33;32.77
38718;BME280;24468;52.128;9.278;2022-08-04T13:06:38;100196.81;;;36.11;32.05
38718;BME280;24468;52.128;9.278;2022-08-04T13:09:17;100197.91;;;36.45;32.16
38718;BME280;24468;52.128;9.278;2022-08-04T13:11:52;100191.66;;;36.43;32.14
38718;BME280;24468;52.128;9.278;2022-08-04T13:14:19;100183.34;;;36.37;31.38
38718;BME280;24468;52.128;9.278;2022-08-04T13:16:45;100195.94;;;36.46;31.77
38718;BME280;24468;52.128;9.278;2022-08-04T13:19:11;100197.03;;;35.74;31.70
38718;BME280;24468;52.128;9.278;2022-08-04T13:21:43;100197.53;;;35.71;32.44
38718;BME280;24468;52.128;9.278;2022-08-04T13:24:15;100197.94;;;36.10;31.69
38718;BME280;24468;52.128;9.278;2022-08-04T13:26:54;100189.75;;;36.20;31.06
38718;BME280;24468;52.128;9.278;2022-08-04T13:29:30;100186.50;;;36.52;31.34
38718;BME280;24468;52.128;9.278;2022-08-04T13:31:59;100180.38;;;36.79;30.90
38718;BME280;24468;52.128;9.278;2022-08-04T13:34:26;100188.41;;;36.75;31.22
38718;BME280;24468;52.128;9.278;2022-08-04T13:36:54;100173.94;;;36.95;31.13
38718;BME280;24468;52.128;9.278;2022-08-04T13:39:21;100191.81;;;36.89;30.49
38718;BME280;24468;52.128;9.278;2022-08-04T13:41:52;100178.78;;;37.57;30.71
38718;BME280;24468;52.128;9.278;2022-08-04T13:44:31;100184.41;;;37.74;29.44
38718;BME280;24468;52.128;9.278;2022-08-04T13:47:13;100174.84;;;37.41;29.54
38718;BME280;24468;52.128;9.278;2022-08-04T13:49:39;100168.50;;;37.17;29.86
38718;BME280;24468;52.128;9.278;2022-08-04T13:52:07;100164.41;;;37.25;29.81
38718;BME280;24468;52.128;9.278;2022-08-04T13:54:46;100166.13;;;37.43;29.33
38718;BME280;24468;52.128;9.278;2022-08-04T13:57:21;100166.13;;;36.97;29.86
38718;BME280;24468;52.128;9.278;2022-08-04T13:59:50;100162.50;;;37.76;29.56
38718;BME280;24468;52.128;9.278;2022-08-04T14:02:30;100160.09;;;37.68;29.44
38718;BME280;24468;52.128;9.278;2022-08-04T14:05:04;100162.09;;;36.93;28.79
38718;BME280;24468;52.128;9.278;2022-08-04T14:07:43;100153.84;;;36.75;29.28
38718;BME280;24468;52.128;9.278;2022-08-04T14:10:11;100162.59;;;36.90;29.20
38718;BME280;24468;52.128;9.278;2022-08-04T14:12:45;100155.72;;;36.98;29.45
38718;BME280;24468;52.128;9.278;2022-08-04T14:18:22;100162.16;;;37.55;28.18
38718;BME280;24468;52.128;9.278;2022-08-04T14:21:07;100162.75;;;37.74;27.60
38718;BME280;24468;52.128;9.278;2022-08-04T14:23:45;100145.84;;;38.08;27.25
38718;BME280;24468;52.128;9.278;2022-08-04T14:26:31;100142.94;;;38.42;27.14
38718;BME280;24468;52.128;9.278;2022-08-04T14:29:08;100144.22;;;37.95;27.66
38718;BME280;24468;52.128;9.278;2022-08-04T14:31:34;100155.97;;;37.25;28.64
38718;BME280;24468;52.128;9.278;2022-08-04T14:34:00;100174.06;;;36.60;29.34
38718;BME280;24468;52.128;9.278;2022-08-04T14:36:25;100155.81;;;36.74;29.48
38718;BME280;24468;52.128;9.278;2022-08-04T14:38:57;100162.75;;;37.12;29.45
38718;BME280;24468;52.128;9.278;2022-08-04T14:41:29;100165.47;;;36.66;29.22
38718;BME280;24468;52.128;9.278;2022-08-04T14:43:59;100152.25;;;36.79;29.69
38718;BME280;24468;52.128;9.278;2022-08-04T14:46:26;100157.81;;;36.62;29.21
38718;BME280;24468;52.128;9.278;2022-08-04T14:49:10;100153.94;;;36.80;28.84
38718;BME280;24468;52.128;9.278;2022-08-04T14:51:50;100173.28;;;36.76;28.67
38718;BME280;24468;52.128;9.278;2022-08-04T14:54:30;100177.88;;;35.71;30.14
38718;BME280;24468;52.128;9.278;2022-08-04T14:57:04;100172.25;;;35.71;30.19
38718;BME280;24468;52.128;9.278;2022-08-04T14:59:59;100176.78;;;35.96;29.89
38718;BME280;24468;52.128;9.278;2022-08-04T15:02:25;100171.53;;;35.88;29.70
38718;BME280;24468;52.128;9.278;2022-08-04T15:04:51;100168.88;;;35.51;30.06
38718;BME280;24468;52.128;9.278;2022-08-04T15:07:16;100172.66;;;35.03;30.14
38718;BME280;24468;52.128;9.278;2022-08-04T15:09:42;100167.59;;;34.93;31.01
38718;BME280;24468;52.128;9.278;2022-08-04T15:12:10;100173.44;;;34.61;32.18
38718;BME280;24468;52.128;9.278;2022-08-04T15:14:35;100182.41;;;34.82;32.54
38718;BME280;24468;52.128;9.278;2022-08-04T15:17:01;100174.03;;;34.63;33.45
38718;BME280;24468;52.128;9.278;2022-08-04T15:19:27;100174.75;;;34.59;33.33
38718;BME280;24468;52.128;9.278;2022-08-04T15:21:54;100189.66;;;34.34;33.71
38718;BME280;24468;52.128;9.278;2022-08-04T15:24:20;100196.97;;;34.53;33.18
38718;BME280;24468;52.128;9.278;2022-08-04T15:26:50;100183.50;;;34.44;33.54
38718;BME280;24468;52.128;9.278;2022-08-04T15:29:37;100195.75;;;34.31;34.06
38718;BME280;24468;52.128;9.278;2022-08-04T15:32:05;100209.13;;;32.70;44.22
38718;BME280;24468;52.128;9.278;2022-08-04T15:34:50;100256.47;;;31.72;52.75
38718;BME280;24468;52.128;9.278;2022-08-04T15:37:41;100242.19;;;31.14;61.46
38718;BME280;24468;52.128;9.278;2022-08-04T15:40:27;100263.97;;;30.55;67.61
38718;BME280;24468;52.128;9.278;2022-08-04T15:46:09;100254.47;;;30.15;74.28
38718;BME280;24468;52.128;9.278;2022-08-04T15:48:37;100258.47;;;30.06;76.11
38718;BME280;24468;52.128;9.278;2022-08-04T15:51:06;100270.22;;;29.80;78.11
38718;BME280;24468;52.128;9.278;2022-08-04T15:58:55;100280.13;;;29.24;80.65
38718;BME280;24468;52.128;9.278;2022-08-04T16:01:21;100276.94;;;29.28;80.11
38718;BME280;24468;52.128;9.278;2022-08-04T16:03:50;100287.72;;;29.16;79.09
38718;BME280;24468;52.128;9.278;2022-08-04T16:19:30;100299.88;;;28.85;78.86
38718;BME280;24468;52.128;9.278;2022-08-04T16:22:00;100296.34;;;28.91;78.82
38718;BME280;24468;52.128;9.278;2022-08-04T16:24:40;100302.66;;;29.15;78.23
38718;BME280;24468;52.128;9.278;2022-08-04T16:27:08;100306.69;;;28.97;76.79
38718;BME280;24468;52.128;9.278;2022-08-04T16:29:39;100295.44;;;29.20;75.41
38718;BME280;24468;52.128;9.278;2022-08-04T16:32:05;100302.75;;;28.92;76.09
38718;BME280;24468;52.128;9.278;2022-08-04T16:34:41;100294.69;;;29.12;74.89
38718;BME280;24468;52.128;9.278;2022-08-04T16:37:12;100298.22;;;29.20;73.77
38718;BME280;24468;52.128;9.278;2022-08-04T16:39:39;100296.34;;;29.06;74.02
38718;BME280;24468;52.128;9.278;2022-08-04T16:42:28;100294.31;;;29.15;73.13
38718;BME280;24468;52.128;9.278;2022-08-04T16:52:43;100296.69;;;29.18;70.75
38718;BME280;24468;52.128;9.278;2022-08-04T16:55:10;100296.09;;;29.37;69.87
38718;BME280;24468;52.128;9.278;2022-08-04T16:57:37;100300.63;;;29.45;69.22
38718;BME280;24468;52.128;9.278;2022-08-04T17:00:04;100295.81;;;29.32;68.93
38718;BME280;24468;52.128;9.278;2022-08-04T17:02:30;100285.88;;;29.44;68.20
38718;BME280;24468;52.128;9.278;2022-08-04T17:04:56;100288.69;;;29.08;69.74
38718;BME280;24468;52.128;9.278;2022-08-04T17:07:22;100285.50;;;29.47;67.72
38718;BME280;24468;52.128;9.278;2022-08-04T17:09:52;100284.47;;;29.34;68.73
38718;BME280;24468;52.128;9.278;2022-08-04T17:12:18;100285.22;;;29.21;70.09
38718;BME280;24468;52.128;9.278;2022-08-04T17:14:43;100288.84;;;29.21;69.05